STORM60 ENSO-ENBR
Flight info
| Callsign | STORM60 |
|---|---|
| Flight time | 0h 38m |
| Altitude | 6000 |
| Route | STD STAY1/0020 STD DCT FLS STAY2/0020 |
| Aircraft | EH10/L-SDGRWY/S |
Departure
| Time | 2026-04-26 18:59 |
|---|---|
| Airport | Stord Airport, Sørstokken (ENSO) |
Arrival
| Time | 2026-04-26 19:38 |
|---|---|
| Airport | Bergen Airport, Flesland (ENBR) |
| Time | Latitude | Longitude | Altitude | Speed | Heading |
|---|---|---|---|---|---|
| 2026-04-26 18:46 | 59.79308 | 5.34141 | 161 ft | 0 kts | 328° |
| 2026-04-26 18:55 | 59.79310 | 5.34125 | 161 ft | 3 kts | 256° |
| 2026-04-26 18:55 | 59.79290 | 5.34102 | 161 ft | 1 kts | 202° |
| 2026-04-26 18:56 | 59.79277 | 5.34086 | 161 ft | 3 kts | 227° |
| 2026-04-26 18:56 | 59.79258 | 5.34040 | 161 ft | 7 kts | 233° |
| 2026-04-26 18:56 | 59.79197 | 5.34082 | 161 ft | 14 kts | 145° |
| 2026-04-26 18:56 | 59.79110 | 5.34207 | 161 ft | 15 kts | 144° |
| 2026-04-26 18:57 | 59.79018 | 5.34325 | 161 ft | 15 kts | 146° |
| 2026-04-26 18:57 | 59.78959 | 5.34407 | 161 ft | 15 kts | 145° |
| 2026-04-26 18:57 | 59.78879 | 5.34517 | 160 ft | 5 kts | 143° |
| 2026-04-26 18:57 | 59.78805 | 5.34626 | 158 ft | 13 kts | 146° |
| 2026-04-26 18:58 | 59.78751 | 5.34702 | 157 ft | 14 kts | 144° |
| 2026-04-26 18:58 | 59.78686 | 5.34810 | 155 ft | 9 kts | 128° |
| 2026-04-26 18:58 | 59.78672 | 5.34812 | 155 ft | 2 kts | 332° |
| 2026-04-26 18:58 | 59.78674 | 5.34810 | 155 ft | 0 kts | 329° |
| 2026-04-26 18:59 | 59.78673 | 5.34815 | 180 ft | 2 kts | 327° |
| 2026-04-26 18:59 | 59.78902 | 5.34504 | 225 ft | 83 kts | 325° |
| 2026-04-26 18:59 | 59.79456 | 5.33723 | 516 ft | 97 kts | 324° |
| 2026-04-26 18:59 | 59.80024 | 5.32945 | 812 ft | 101 kts | 325° |
| 2026-04-26 19:00 | 59.80749 | 5.31946 | 1137 ft | 101 kts | 326° |
| 2026-04-26 19:00 | 59.81123 | 5.31412 | 1329 ft | 100 kts | 326° |
| 2026-04-26 19:00 | 59.81689 | 5.30590 | 1625 ft | 100 kts | 325° |
| 2026-04-26 19:00 | 59.82242 | 5.29765 | 1888 ft | 100 kts | 325° |
| 2026-04-26 19:01 | 59.82793 | 5.28927 | 2136 ft | 101 kts | 325° |
| 2026-04-26 19:01 | 59.83355 | 5.28076 | 2394 ft | 102 kts | 325° |
| 2026-04-26 19:01 | 59.83919 | 5.27224 | 2651 ft | 102 kts | 325° |
| 2026-04-26 19:01 | 59.84673 | 5.26082 | 2984 ft | 104 kts | 325° |
| 2026-04-26 19:02 | 59.85054 | 5.25501 | 3163 ft | 103 kts | 325° |
| 2026-04-26 19:02 | 59.85621 | 5.24636 | 3413 ft | 103 kts | 325° |
| 2026-04-26 19:02 | 59.86196 | 5.23765 | 3663 ft | 104 kts | 325° |
| 2026-04-26 19:02 | 59.86575 | 5.23194 | 3836 ft | 104 kts | 325° |
| 2026-04-26 19:03 | 59.87436 | 5.22141 | 4045 ft | 114 kts | 330° |
| 2026-04-26 19:03 | 59.87918 | 5.21071 | 3925 ft | 111 kts | 285° |
| 2026-04-26 19:03 | 59.87834 | 5.19508 | 3928 ft | 117 kts | 262° |
| 2026-04-26 19:03 | 59.87630 | 5.17933 | 3977 ft | 116 kts | 262° |
| 2026-04-26 19:04 | 59.87431 | 5.16379 | 3997 ft | 116 kts | 262° |
| 2026-04-26 19:04 | 59.87244 | 5.14741 | 3880 ft | 135 kts | 263° |
| 2026-04-26 19:04 | 59.87069 | 5.12812 | 3996 ft | 145 kts | 263° |
| 2026-04-26 19:04 | 59.86863 | 5.10825 | 4047 ft | 145 kts | 263° |
| 2026-04-26 19:05 | 59.86419 | 5.06913 | 4002 ft | 145 kts | 262° |
| 2026-04-26 19:05 | 59.86201 | 5.04943 | 3985 ft | 146 kts | 262° |
| 2026-04-26 19:05 | 59.85985 | 5.02983 | 3990 ft | 146 kts | 262° |
| 2026-04-26 19:06 | 59.85766 | 5.01023 | 3992 ft | 146 kts | 262° |
| 2026-04-26 19:06 | 59.85546 | 4.99053 | 3988 ft | 146 kts | 263° |
| 2026-04-26 19:06 | 59.85193 | 4.97128 | 3959 ft | 154 kts | 238° |
| 2026-04-26 19:06 | 59.84283 | 4.96047 | 3985 ft | 159 kts | 193° |
| 2026-04-26 19:07 | 59.83232 | 4.96479 | 4000 ft | 157 kts | 146° |
| 2026-04-26 19:07 | 59.82614 | 4.98173 | 4023 ft | 150 kts | 111° |
| 2026-04-26 19:07 | 59.82167 | 5.00052 | 3996 ft | 151 kts | 111° |
| 2026-04-26 19:07 | 59.81706 | 5.01938 | 3972 ft | 152 kts | 112° |
| 2026-04-26 19:08 | 59.81233 | 5.03821 | 3967 ft | 153 kts | 112° |
| 2026-04-26 19:08 | 59.80755 | 5.05703 | 3977 ft | 153 kts | 112° |
| 2026-04-26 19:08 | 59.80278 | 5.07586 | 3976 ft | 152 kts | 112° |
| 2026-04-26 19:08 | 59.79801 | 5.09469 | 3992 ft | 151 kts | 112° |
| 2026-04-26 19:09 | 59.79333 | 5.11326 | 4002 ft | 150 kts | 112° |
| 2026-04-26 19:09 | 59.78909 | 5.13213 | 3962 ft | 149 kts | 96° |
| 2026-04-26 19:09 | 59.78881 | 5.15216 | 3984 ft | 145 kts | 84° |
| 2026-04-26 19:09 | 59.78883 | 5.17213 | 3981 ft | 145 kts | 85° |
| 2026-04-26 19:10 | 59.78878 | 5.19227 | 3972 ft | 146 kts | 85° |
| 2026-04-26 19:10 | 59.78867 | 5.21246 | 3977 ft | 146 kts | 85° |
| 2026-04-26 19:10 | 59.78852 | 5.23234 | 3992 ft | 146 kts | 86° |
| 2026-04-26 19:10 | 59.78833 | 5.25254 | 3990 ft | 146 kts | 86° |
| 2026-04-26 19:11 | 59.78811 | 5.27278 | 3986 ft | 146 kts | 86° |
| 2026-04-26 19:11 | 59.78786 | 5.29286 | 3985 ft | 146 kts | 86° |
| 2026-04-26 19:11 | 59.78760 | 5.31300 | 3985 ft | 146 kts | 86° |
| 2026-04-26 19:11 | 59.78733 | 5.33301 | 3988 ft | 146 kts | 87° |
| 2026-04-26 19:12 | 59.78586 | 5.35305 | 3974 ft | 152 kts | 109° |
| 2026-04-26 19:12 | 59.77898 | 5.36913 | 4002 ft | 153 kts | 131° |
| 2026-04-26 19:12 | 59.77148 | 5.38416 | 3996 ft | 154 kts | 131° |
| 2026-04-26 19:12 | 59.76730 | 5.39258 | 3988 ft | 154 kts | 131° |
| 2026-04-26 19:13 | 59.76281 | 5.40166 | 3981 ft | 154 kts | 131° |
| 2026-04-26 19:13 | 59.75534 | 5.41679 | 3972 ft | 154 kts | 131° |
| 2026-04-26 19:13 | 59.74781 | 5.43202 | 3949 ft | 153 kts | 130° |
| 2026-04-26 19:13 | 59.74028 | 5.44693 | 3811 ft | 153 kts | 130° |
| 2026-04-26 19:14 | 59.73277 | 5.46166 | 3627 ft | 152 kts | 130° |
| 2026-04-26 19:14 | 59.72525 | 5.47627 | 3437 ft | 152 kts | 130° |
| 2026-04-26 19:14 | 59.71777 | 5.49081 | 3249 ft | 151 kts | 130° |
| 2026-04-26 19:14 | 59.71279 | 5.50049 | 3124 ft | 150 kts | 130° |
| 2026-04-26 19:15 | 59.70286 | 5.51992 | 2880 ft | 149 kts | 130° |
| 2026-04-26 19:15 | 59.69558 | 5.53417 | 2688 ft | 149 kts | 130° |
| 2026-04-26 19:15 | 59.68647 | 5.54399 | 2499 ft | 153 kts | 170° |
| 2026-04-26 19:15 | 59.67632 | 5.53957 | 2432 ft | 151 kts | 214° |
| 2026-04-26 19:16 | 59.67075 | 5.52324 | 2447 ft | 144 kts | 262° |
| 2026-04-26 19:16 | 59.67278 | 5.50685 | 2522 ft | 111 kts | 317° |
| 2026-04-26 19:16 | 59.67873 | 5.49843 | 2430 ft | 102 kts | 331° |
| 2026-04-26 19:16 | 59.68468 | 5.49068 | 2433 ft | 102 kts | 329° |
| 2026-04-26 19:17 | 59.69056 | 5.48277 | 2462 ft | 102 kts | 328° |
| 2026-04-26 19:17 | 59.69639 | 5.47480 | 2485 ft | 102 kts | 328° |
| 2026-04-26 19:17 | 59.70216 | 5.46677 | 2492 ft | 102 kts | 328° |
| 2026-04-26 19:17 | 59.70983 | 5.45599 | 2548 ft | 96 kts | 328° |
| 2026-04-26 19:18 | 59.71339 | 5.45093 | 2504 ft | 93 kts | 328° |
| 2026-04-26 19:18 | 59.71861 | 5.44347 | 2340 ft | 93 kts | 327° |
| 2026-04-26 19:18 | 59.72384 | 5.43601 | 2158 ft | 93 kts | 327° |
| 2026-04-26 19:18 | 59.72909 | 5.42846 | 1978 ft | 93 kts | 327° |
| 2026-04-26 19:19 | 59.73597 | 5.41851 | 1667 ft | 92 kts | 327° |
| 2026-04-26 19:19 | 59.73938 | 5.41360 | 1499 ft | 92 kts | 327° |
| 2026-04-26 19:19 | 59.74454 | 5.40618 | 1253 ft | 91 kts | 325° |
| 2026-04-26 19:19 | 59.75126 | 5.39646 | 1000 ft | 89 kts | 324° |
| 2026-04-26 19:20 | 59.75455 | 5.39168 | 922 ft | 88 kts | 324° |
| 2026-04-26 19:20 | 59.75790 | 5.38689 | 845 ft | 88 kts | 324° |
| 2026-04-26 19:20 | 59.76458 | 5.37786 | 691 ft | 87 kts | 329° |
| 2026-04-26 19:20 | 59.76969 | 5.37198 | 572 ft | 83 kts | 324° |
| 2026-04-26 19:21 | 59.77425 | 5.36566 | 481 ft | 78 kts | 323° |
| 2026-04-26 19:21 | 59.77855 | 5.35958 | 391 ft | 74 kts | 323° |
| 2026-04-26 19:21 | 59.78255 | 5.35408 | 328 ft | 67 kts | 323° |
| 2026-04-26 19:21 | 59.78778 | 5.34668 | 190 ft | 59 kts | 324° |
| 2026-04-26 19:22 | 59.78933 | 5.34457 | 168 ft | 20 kts | 324° |
| 2026-04-26 19:22 | 59.78954 | 5.34427 | 161 ft | 0 kts | 323° |
| 2026-04-26 19:23 | 59.78943 | 5.34436 | 193 ft | 14 kts | 326° |
| 2026-04-26 19:23 | 59.79285 | 5.33964 | 220 ft | 94 kts | 323° |
| 2026-04-26 19:23 | 59.79895 | 5.33149 | 413 ft | 110 kts | 326° |
| 2026-04-26 19:23 | 59.80734 | 5.31975 | 799 ft | 112 kts | 326° |
| 2026-04-26 19:24 | 59.81158 | 5.31370 | 974 ft | 112 kts | 324° |
| 2026-04-26 19:24 | 59.81785 | 5.30458 | 1231 ft | 112 kts | 324° |
| 2026-04-26 19:24 | 59.83034 | 5.28559 | 1723 ft | 115 kts | 324° |
| 2026-04-26 19:25 | 59.83659 | 5.27561 | 1978 ft | 117 kts | 324° |
| 2026-04-26 19:25 | 59.84082 | 5.26883 | 2146 ft | 118 kts | 324° |
| 2026-04-26 19:25 | 59.84930 | 5.25522 | 2493 ft | 118 kts | 324° |
| 2026-04-26 19:25 | 59.85565 | 5.24507 | 2751 ft | 118 kts | 324° |
| 2026-04-26 19:26 | 59.86217 | 5.23469 | 2996 ft | 120 kts | 324° |
| 2026-04-26 19:26 | 59.86860 | 5.22445 | 3257 ft | 119 kts | 324° |
| 2026-04-26 19:26 | 59.87508 | 5.21418 | 3512 ft | 119 kts | 324° |
| 2026-04-26 19:26 | 59.88155 | 5.20389 | 3768 ft | 119 kts | 324° |
| 2026-04-26 19:27 | 59.88805 | 5.19350 | 4032 ft | 119 kts | 326° |
| 2026-04-26 19:27 | 59.89566 | 5.18848 | 4050 ft | 116 kts | 352° |
| 2026-04-26 19:27 | 59.90379 | 5.18648 | 3935 ft | 125 kts | 351° |
| 2026-04-26 19:27 | 59.91319 | 5.18504 | 3950 ft | 142 kts | 353° |
| 2026-04-26 19:28 | 59.92300 | 5.18344 | 4040 ft | 143 kts | 352° |
| 2026-04-26 19:28 | 59.93297 | 5.18143 | 4042 ft | 143 kts | 352° |
| 2026-04-26 19:28 | 59.94291 | 5.17905 | 4024 ft | 144 kts | 352° |
| 2026-04-26 19:28 | 59.95281 | 5.17639 | 4012 ft | 144 kts | 352° |
| 2026-04-26 19:29 | 59.96269 | 5.17368 | 3998 ft | 144 kts | 352° |
| 2026-04-26 19:29 | 59.97263 | 5.17311 | 3971 ft | 147 kts | 13° |
| 2026-04-26 19:29 | 59.98184 | 5.18132 | 4016 ft | 145 kts | 22° |
| 2026-04-26 19:29 | 59.99103 | 5.18985 | 4006 ft | 145 kts | 22° |
| 2026-04-26 19:30 | 60.00011 | 5.19827 | 4005 ft | 144 kts | 22° |
| 2026-04-26 19:30 | 60.00917 | 5.20669 | 4002 ft | 144 kts | 22° |
| 2026-04-26 19:30 | 60.01825 | 5.21507 | 3999 ft | 145 kts | 22° |
| 2026-04-26 19:30 | 60.02445 | 5.22075 | 3999 ft | 145 kts | 22° |
| 2026-04-26 19:31 | 60.03657 | 5.23182 | 4000 ft | 145 kts | 22° |
| 2026-04-26 19:31 | 60.04574 | 5.24011 | 3941 ft | 144 kts | 22° |
| 2026-04-26 19:31 | 60.05485 | 5.24821 | 3739 ft | 144 kts | 22° |
| 2026-04-26 19:31 | 60.06704 | 5.25891 | 3421 ft | 144 kts | 22° |
| 2026-04-26 19:32 | 60.07319 | 5.26424 | 3252 ft | 144 kts | 22° |
| 2026-04-26 19:32 | 60.08232 | 5.27210 | 2994 ft | 144 kts | 22° |
| 2026-04-26 19:32 | 60.09147 | 5.27989 | 2746 ft | 143 kts | 22° |
| 2026-04-26 19:32 | 60.10116 | 5.28188 | 2489 ft | 142 kts | 351° |
| 2026-04-26 19:33 | 60.11098 | 5.27857 | 2240 ft | 141 kts | 352° |
| 2026-04-26 19:33 | 60.12057 | 5.27546 | 1991 ft | 140 kts | 352° |
| 2026-04-26 19:33 | 60.13023 | 5.27234 | 1968 ft | 142 kts | 356° |
| 2026-04-26 19:33 | 60.13995 | 5.26940 | 2184 ft | 141 kts | 356° |
| 2026-04-26 19:34 | 60.14954 | 5.26641 | 2442 ft | 139 kts | 356° |
| 2026-04-26 19:34 | 60.15904 | 5.26314 | 2541 ft | 137 kts | 349° |
| 2026-04-26 19:34 | 60.16840 | 5.25977 | 2406 ft | 139 kts | 351° |
| 2026-04-26 19:34 | 60.17800 | 5.25656 | 2244 ft | 140 kts | 351° |
| 2026-04-26 19:35 | 60.18765 | 5.25336 | 2070 ft | 141 kts | 351° |
| 2026-04-26 19:35 | 60.19740 | 5.25010 | 1884 ft | 141 kts | 351° |
| 2026-04-26 19:35 | 60.20705 | 5.24691 | 1701 ft | 140 kts | 351° |
| 2026-04-26 19:35 | 60.21965 | 5.24272 | 1452 ft | 139 kts | 351° |
| 2026-04-26 19:36 | 60.22610 | 5.24057 | 1328 ft | 139 kts | 351° |
| 2026-04-26 19:36 | 60.23249 | 5.23844 | 1202 ft | 139 kts | 350° |
| 2026-04-26 19:36 | 60.24437 | 5.23445 | 1091 ft | 108 kts | 356° |
| 2026-04-26 19:36 | 60.25108 | 5.23260 | 840 ft | 91 kts | 357° |
| 2026-04-26 19:37 | 60.25710 | 5.23173 | 881 ft | 90 kts | 354° |
| 2026-04-26 19:37 | 60.26336 | 5.23105 | 726 ft | 90 kts | 354° |
| 2026-04-26 19:37 | 60.26953 | 5.22968 | 587 ft | 88 kts | 348° |
| 2026-04-26 19:37 | 60.27535 | 5.22745 | 451 ft | 79 kts | 348° |
| 2026-04-26 19:38 | 60.28052 | 5.22575 | 322 ft | 70 kts | 352° |
| 2026-04-26 19:38 | 60.28472 | 5.22438 | 237 ft | 51 kts | 350° |
| 2026-04-26 19:38 | 60.28791 | 5.22326 | 198 ft | 45 kts | 351° |
| 2026-04-26 19:38 | 60.29023 | 5.22248 | 169 ft | 20 kts | 349° |
| 2026-04-26 19:39 | 60.29061 | 5.22239 | 159 ft | 0 kts | 359° |
| 2026-04-26 19:39 | 60.29082 | 5.22240 | 160 ft | 7 kts | 330° |
| 2026-04-26 19:39 | 60.29156 | 5.22199 | 159 ft | 16 kts | 348° |
| 2026-04-26 19:40 | 60.29291 | 5.22153 | 156 ft | 14 kts | 352° |
| 2026-04-26 19:40 | 60.29340 | 5.22138 | 155 ft | 4 kts | 351° |
| 2026-04-26 19:40 | 60.29388 | 5.22147 | 155 ft | 11 kts | 40° |
| 2026-04-26 19:40 | 60.29464 | 5.22218 | 154 ft | 18 kts | 353° |
| 2026-04-26 19:41 | 60.29544 | 5.22234 | 152 ft | 6 kts | 43° |
| 2026-04-26 19:41 | 60.29561 | 5.22333 | 152 ft | 8 kts | 82° |
| 2026-04-26 19:41 | 60.29555 | 5.22425 | 152 ft | 5 kts | 140° |
| 2026-04-26 19:41 | 60.29532 | 5.22436 | 152 ft | 4 kts | 184° |
| 2026-04-26 19:42 | 60.29503 | 5.22408 | 153 ft | 1 kts | 211° |
| 2026-04-26 19:42 | 60.29487 | 5.22373 | 153 ft | 3 kts | 19° |
| 2026-04-26 19:42 | 60.29488 | 5.22379 | 153 ft | 0 kts | 69° |